Dulaan Hayrhan Uul - Daily weather history

Lat: 47.84 | Lon: 98.86 | Forecast for altitude: 3076m | Map

Dulaan Hayrhan Uul, Historical weather data

Weather station: ULAANBAATAR at 596.8km of Dulaan Hayrhan Uul
Station location: Lat 47.917 Lon 106.867 Altitude 1306m
Time Temperature Relative Temperature Wind Wind Gust Rel. humidity Dew Point Pressure Icon DescriptionDetails
00:00 -17°C -17°C Calm N/A 78% -20°C 1010.0mb
01:00 -15°C -15°C Variable at 2 Km/h N/A 78% -18°C 1009.0mb
02:00 -19°C -19°C Variable at 2 Km/h N/A 84% -21°C 1009.0mb
03:00 -17°C -17°C Calm N/A 85% -19°C 1009.0mb
04:00 -20°C -20°C Variable at 2 Km/h N/A 84% -22°C 1008.0mb
05:00 -18°C -18°C Variable at 2 Km/h N/A 78% -21°C 1008.0mb
05:30 -17°C -17°C Variable at 2 Km/h N/A 78% -20°C 1008.0mb
06:00 -19°C -19°C Variable at 2 Km/h N/A 77% -22°C 1007.0mb
06:30 -19°C -19°C Variable at 2 Km/h N/A 77% -22°C 1007.0mb
07:00 -19°C -19°C Variable at 2 Km/h N/A 71% -23°C 1007.0mb
07:30 -20°C -20°C Calm N/A 77% -23°C 1006.0mb
08:00 -17°C -17°C Variable at 2 Km/h N/A 78% -20°C 1006.0mb
08:30 -21°C -21°C Variable at 2 Km/h N/A 84% -23°C 1006.0mb
09:00 -17°C -17°C Variable at 2 Km/h N/A 78% -20°C 1007.0mb Scattered Clouds at 3000m
09:30 -17°C -17°C Calm N/A 85% -19°C 1007.0mb Scattered Clouds at 3000m
10:00 -15°C -15°C Calm N/A 78% -18°C 1007.0mb Scattered Clouds at 3000m
10:30 -14°C -14°C Calm N/A 78% -17°C 1006.0mb Scattered Clouds at 3000m
11:00 -12°C -12°C Variable at 2 Km/h N/A 72% -16°C 1006.0mb Scattered Clouds at 3000m
11:30 -11°C -11°C Variable at 2 Km/h N/A 67% -16°C 1006.0mb Scattered Clouds at 3000m
12:00 -10°C -10°C Variable at 2 Km/h N/A 67% -15°C 1006.0mb Scattered Clouds at 3000m
12:30 -8°C -8°C Variable at 2 Km/h N/A 58% -15°C 1005.0mb Scattered Clouds at 3000m
13:00 -8°C -8°C Variable at 2 Km/h N/A 62% -14°C 1005.0mb Scattered Clouds at 3000m
13:30 -7°C -7°C Variable at 2 Km/h N/A 58% -14°C 1004.0mb Broken Clouds at 7600m
14:00 -7°C -7°C Variable at 2 Km/h N/A 58% -14°C 1004.0mb Broken Clouds at 7600m
14:30 -7°C -7°C Calm N/A 63% -13°C 1003.0mb Broken Clouds at 7600m
Live Satellite Image
Weather maps
Dulaan Hayrhan Uul: Nearby areas

Local Time: Dulaan Hayrhan Uul, Mongolia

21 Nov 2019 | 14:54